Time;durP1;ratioP1;P1;durP2;ratioP2;P2;SDS_P1;SDS_P2;PMS_P1;PMS_P2;Temp;Humidity;BMP_temperature;BMP_pressure;BME280_temperature;BME280_humidity;BME280_pressure;Samples;Min_cycle;Max_cycle;Signal;HPM_P1;HPM_P2
2021/10/12 00:01:53;;;;;;;14.20;6.85;;;;;;;7.47;87.56;98936.97;5124426;28;20113;-95
2021/10/12 00:04:20;;;;;;;12.32;6.90;;;;;;;7.47;87.72;98944.03;5124529;28;20043;-94
2021/10/12 00:06:46;;;;;;;12.10;6.93;;;;;;;7.63;87.51;98981.78;5126316;28;20035;-95
2021/10/12 00:09:17;;;;;;;12.20;7.47;;;;;;;7.55;87.85;98974.81;5127474;28;20036;-95
2021/10/12 00:11:43;;;;;;;13.20;7.68;;;;;;;7.39;88.21;98960.00;5128304;28;20043;-94
2021/10/12 00:14:10;;;;;;;12.80;7.75;;;;;;;7.48;88.12;98959.00;5126939;28;20047;-94
2021/10/12 00:16:36;;;;;;;11.68;6.72;;;;;;;7.94;84.88;98953.16;5124627;28;20052;-94
2021/10/12 00:19:02;;;;;;;11.60;6.53;;;;;;;8.10;84.03;98961.75;5126191;28;20040;-94
2021/10/12 00:21:29;;;;;;;13.00;6.43;;;;;;;8.09;83.89;98963.53;5128267;28;20431;-95
2021/10/12 00:23:55;;;;;;;14.93;7.13;;;;;;;8.11;83.48;98966.16;5132158;28;20050;-94
2021/10/12 00:26:23;;;;;;;11.23;6.53;;;;;;;8.25;83.76;98993.34;5130136;28;20052;-95
2021/10/12 00:28:49;;;;;;;13.45;7.60;;;;;;;7.92;84.51;98957.59;5132008;28;20123;-94
2021/10/12 00:31:18;;;;;;;14.30;8.07;;;;;;;7.79;85.88;98955.09;5131969;28;20453;-94
2021/10/12 00:33:45;;;;;;;13.35;8.00;;;;;;;7.61;85.95;98953.56;5132233;28;20043;-95
2021/10/12 00:36:12;;;;;;;14.80;8.15;;;;;;;7.49;86.18;98966.06;5132102;28;20040;-95
2021/10/12 00:38:38;;;;;;;15.05;7.40;;;;;;;7.45;86.86;98965.22;5131661;28;20054;-95
2021/10/12 00:41:08;;;;;;;13.35;8.07;;;;;;;7.27;87.00;98970.72;5131690;28;20043;-94
2021/10/12 00:43:39;;;;;;;15.30;8.02;;;;;;;7.09;88.07;98962.09;5130681;28;20075;-94
2021/10/12 00:46:06;;;;;;;12.77;8.13;;;;;;;6.99;88.80;98963.06;5131570;28;20424;-94
2021/10/12 00:48:33;;;;;;;14.18;8.25;;;;;;;6.99;89.27;98971.84;5127652;28;20437;-95
2021/10/12 00:50:59;;;;;;;15.70;8.10;;;;;;;6.90;88.96;98945.53;5127635;28;20042;-94
2021/10/12 00:53:25;;;;;;;16.55;8.38;;;;;;;6.97;89.41;98967.47;5129996;28;20039;-94
2021/10/12 00:55:52;;;;;;;14.38;7.32;;;;;;;6.86;89.88;98948.22;5128061;28;20055;-95
2021/10/12 00:58:18;;;;;;;13.43;7.80;;;;;;;6.88;90.02;98957.88;5127870;28;20039;-93
2021/10/12 01:00:46;;;;;;;12.32;7.22;;;;;;;7.00;89.59;98951.56;5128464;28;20043;-94
2021/10/12 01:03:13;;;;;;;12.98;7.47;;;;;;;7.07;89.00;98949.75;5126333;28;20047;-93
2021/10/12 01:05:40;;;;;;;13.23;6.63;;;;;;;7.33;88.45;98974.19;5128099;28;20048;-95
2021/10/12 01:08:07;;;;;;;14.13;6.97;;;;;;;7.20;88.74;98954.03;5128826;28;20126;-94
2021/10/12 01:10:33;;;;;;;13.98;6.80;;;;;;;7.25;88.17;98952.22;5127651;28;20092;-94
2021/10/12 01:13:03;;;;;;;16.20;6.95;;;;;;;7.32;87.95;98943.31;5126576;28;20040;-94
2021/10/12 01:18:32;;;;;;;13.85;7.20;;;;;;;7.57;85.76;98935.09;5143032;27;20401;-94
2021/10/12 01:21:00;;;;;;;;;;;;;;;7.64;87.44;98968.53;5143083;28;20047;-95
2021/10/12 01:23:29;;;;;;;14.80;6.97;;;;;;;7.36;87.37;98931.81;5143967;28;19926;-95
2021/10/12 01:25:55;;;;;;;;;;;;;;;7.62;86.94;98970.31;5144079;28;20047;-95
2021/10/12 01:28:21;;;;;;;10.98;6.90;;;;;;;7.39;87.26;98930.88;5144159;28;19939;-94
2021/10/12 01:30:47;;;;;;;16.83;6.82;;;;;;;7.54;87.39;98962.47;5143664;28;20036;-96
2021/10/12 01:33:14;;;;;;;14.27;6.15;;;;;;;7.31;87.57;98930.13;5145591;28;20126;-94
2021/10/12 01:35:40;;;;;;;10.93;6.43;;;;;;;7.24;87.77;98934.56;5148329;27;20040;-95
2021/10/12 01:38:09;;;;;;;11.73;6.50;;;;;;;7.19;88.03;98925.81;5147953;27;20044;-94
2021/10/12 01:40:37;;;;;;;16.15;7.45;;;;;;;7.15;88.58;98922.34;5145440;28;20046;-96
2021/10/12 01:43:03;;;;;;;12.90;7.15;;;;;;;7.28;88.75;98951.31;5145654;27;20054;-94
2021/10/12 01:45:30;;;;;;;16.33;7.65;;;;;;;7.05;89.15;98918.06;5144828;27;20050;-94
2021/10/12 01:47:57;;;;;;;14.48;6.90;;;;;;;6.99;88.93;98912.81;5158465;27;20126;-94
2021/10/12 01:50:23;;;;;;;11.27;6.78;;;;;;;6.89;89.26;98916.44;5157808;27;20053;-94
2021/10/12 01:52:50;;;;;;;14.77;7.07;;;;;;;6.95;89.19;98935.75;5145136;27;20040;-93
2021/10/12 01:55:23;;;;;;;11.90;6.43;;;;;;;6.77;89.69;98923.59;5145033;27;20035;-95
2021/10/12 01:57:52;;;;;;;10.63;7.00;;;;;;;6.74;89.42;98922.75;5146064;27;20039;-93
2021/10/12 02:00:18;;;;;;;13.25;7.13;;;;;;;6.72;89.37;98903.38;5142463;27;20067;-94
2021/10/12 02:02:45;;;;;;;12.90;6.82;;;;;;;6.63;89.97;98909.63;5141311;27;20077;-93
2021/10/12 02:05:12;;;;;;;11.85;6.97;;;;;;;6.81;90.15;98953.53;5144313;27;20522;-94
2021/10/12 02:07:38;;;;;;;12.43;7.00;;;;;;;6.50;90.39;98914.16;5163660;27;20051;-93
2021/10/12 02:10:05;;;;;;;14.90;7.32;;;;;;;6.48;90.64;98917.69;5163592;27;20047;-94
2021/10/12 02:12:34;;;;;;;12.93;6.57;;;;;;;6.69;91.36;98945.72;5146594;27;20103;-94
2021/10/12 02:15:00;;;;;;;12.02;6.43;;;;;;;6.43;90.90;98906.31;5144574;27;20127;-95
2021/10/12 02:17:27;;;;;;;11.85;6.63;;;;;;;6.59;91.68;98942.25;5143814;27;20040;-94
2021/10/12 02:19:53;;;;;;;13.18;7.45;;;;;;;6.36;91.42;98901.06;5144243;27;20069;-94
2021/10/12 02:22:20;;;;;;;17.65;6.75;;;;;;;6.40;91.69;98904.56;5144498;27;20074;-94
2021/10/12 02:24:46;;;;;;;12.88;6.93;;;;;;;6.41;92.00;98908.06;5144279;27;20126;-93
2021/10/12 02:27:12;;;;;;;15.85;7.32;;;;;;;6.31;92.07;98894.06;5144363;28;20054;-94
2021/10/12 02:29:40;;;;;;;13.35;6.80;;;;;;;6.28;92.25;98894.09;5131775;27;20051;-94
2021/10/12 02:32:07;;;;;;;12.73;6.22;;;;;;;6.25;92.22;98887.06;5130615;28;20067;-94
2021/10/12 02:34:57;;;;;;;12.30;6.85;;;;;;;6.28;91.93;98894.97;5130737;28;20052;-95
2021/10/12 02:37:23;;;;;;;12.38;6.78;;;;;;;6.42;91.74;98923.91;5137153;27;20046;-93
2021/10/12 02:39:50;;;;;;;12.70;6.53;;;;;;;6.24;91.98;98895.88;5129735;28;20063;-94
2021/10/12 02:42:16;;;;;;;15.63;7.50;;;;;;;6.23;92.31;98891.50;5125617;28;20123;-94
2021/10/12 02:44:44;;;;;;;13.65;7.50;;;;;;;6.22;92.35;98897.63;5125838;28;20043;-94
2021/10/12 02:47:10;;;;;;;13.75;8.07;;;;;;;6.41;92.03;98926.56;5125320;28;20039;-94
2021/10/12 02:49:36;;;;;;;15.30;8.57;;;;;;;6.22;92.10;98880.94;5125206;28;20388;-94
2021/10/12 02:52:03;;;;;;;18.02;7.82;;;;;;;6.15;92.44;98880.97;5141881;27;20100;-94
2021/10/12 02:54:29;;;;;;;14.43;8.32;;;;;;;6.13;93.09;98876.59;5130040;27;20047;-94
2021/10/12 02:56:55;;;;;;;14.70;7.47;;;;;;;6.29;93.34;98901.09;5130725;28;20079;-95
2021/10/12 02:59:21;;;;;;;13.30;7.55;;;;;;;6.13;93.45;98872.19;5126958;28;20044;-95
2021/10/12 03:01:49;;;;;;;15.38;8.15;;;;;;;6.15;93.06;98873.03;5125779;28;20126;-95
2021/10/12 03:04:15;;;;;;;13.50;7.93;;;;;;;6.24;93.43;98865.94;5126261;28;20107;-95
2021/10/12 03:06:42;;;;;;;17.50;8.90;;;;;;;6.32;93.31;98875.56;5124651;28;20062;-95
2021/10/12 03:09:08;;;;;;;12.13;7.28;;;;;;;6.29;93.18;98869.41;5126765;28;20036;-94
2021/10/12 03:11:35;;;;;;;15.90;7.93;;;;;;;6.23;93.53;98862.44;5129610;28;20051;-95
2021/10/12 03:14:01;;;;;;;15.25;8.18;;;;;;;6.26;93.42;98862.41;5127310;28;20051;-94
2021/10/12 03:16:28;;;;;;;14.40;7.65;;;;;;;6.27;93.45;98864.16;5125819;28;20047;-95
2021/10/12 03:18:55;;;;;;;14.05;7.38;;;;;;;6.36;93.56;98864.09;5124501;28;20075;-94
2021/10/12 03:21:23;;;;;;;14.63;7.60;;;;;;;6.33;93.63;98861.47;5128910;27;20047;-94
2021/10/12 03:23:49;;;;;;;11.77;6.50;;;;;;;6.39;93.82;98857.91;5126493;28;20103;-94
2021/10/12 03:26:15;;;;;;;11.80;6.95;;;;;;;6.47;93.59;98849.91;5128482;27;20046;-94
2021/10/12 03:28:41;;;;;;;13.93;6.63;;;;;;;6.55;93.51;98843.66;5132728;27;20508;-94
2021/10/12 03:31:07;;;;;;;12.30;6.55;;;;;;;6.59;93.00;98855.06;5126461;28;20039;-94
2021/10/12 03:33:33;;;;;;;12.77;7.22;;;;;;;6.64;93.04;98853.28;5127736;28;20081;-95
2021/10/12 03:36:12;;;;;;;15.15;7.22;;;;;;;6.60;92.86;98850.69;5129326;28;20073;-94
2021/10/12 03:38:39;;;;;;;12.60;7.43;;;;;;;6.51;92.82;98852.50;5150108;27;20039;-95
2021/10/12 03:41:05;;;;;;;14.20;7.32;;;;;;;6.43;92.13;98850.81;5149441;27;20035;-94
2021/10/12 03:43:31;;;;;;;13.85;7.13;;;;;;;6.45;93.39;98851.69;5148328;27;20039;-93
2021/10/12 03:45:57;;;;;;;11.20;6.72;;;;;;;6.64;93.29;98869.13;5145684;27;20047;-95
2021/10/12 03:48:23;;;;;;;10.07;6.03;;;;;;;6.71;92.55;98864.66;5135286;27;20044;-94
2021/10/12 03:50:49;;;;;;;12.50;6.85;;;;;;;6.72;91.45;98854.06;5123820;28;20043;-95
2021/10/12 03:53:17;;;;;;;12.18;6.65;;;;;;;6.96;91.03;98889.03;5131097;27;20046;-93
2021/10/12 03:55:43;;;;;;;11.65;6.55;;;;;;;6.75;90.79;98853.16;5145758;27;20043;-94
2021/10/12 03:58:09;;;;;;;11.57;5.97;;;;;;;6.68;90.64;98852.34;5131646;27;20043;-94
2021/10/12 04:00:35;;;;;;;11.02;6.25;;;;;;;6.61;91.13;98853.28;5125656;28;20082;-95
2021/10/12 04:03:02;;;;;;;15.18;7.25;;;;;;;6.69;91.29;98864.66;5125246;28;20044;-94
2021/10/12 04:05:28;;;;;;;11.57;6.57;;;;;;;6.74;91.12;98857.59;5124506;28;20050;-95
2021/10/12 04:07:54;;;;;;;12.32;6.70;;;;;;;6.86;90.13;98855.69;5124295;28;20043;-94
2021/10/12 04:10:22;;;;;;;13.95;7.05;;;;;;;6.89;90.09;98853.00;5124171;28;20050;-93
2021/10/12 04:12:48;;;;;;;15.48;7.47;;;;;;;7.02;90.45;98883.69;5125781;28;20044;-94
2021/10/12 04:15:14;;;;;;;18.75;7.38;;;;;;;6.93;89.71;98846.78;5126704;28;20044;-93
2021/10/12 04:17:40;;;;;;;13.88;6.97;;;;;;;7.06;88.54;98845.75;5125996;28;20035;-94
2021/10/12 04:20:07;;;;;;;13.77;7.68;;;;;;;7.16;88.49;98857.97;5126099;28;20066;-95
2021/10/12 04:22:33;;;;;;;13.85;7.32;;;;;;;7.06;88.53;98853.69;5126089;28;20047;-95
2021/10/12 04:24:59;;;;;;;14.20;6.80;;;;;;;6.91;88.97;98859.16;5127525;28;20043;-94
2021/10/12 04:27:27;;;;;;;13.40;6.65;;;;;;;6.96;89.39;98881.13;5127116;28;20051;-95
2021/10/12 04:29:54;;;;;;;13.32;6.10;;;;;;;6.71;89.67;98849.66;5127090;28;20104;-95
2021/10/12 04:32:20;;;;;;;12.07;6.78;;;;;;;6.67;89.84;98847.06;5127215;28;20484;-94
2021/10/12 04:34:46;;;;;;;10.82;5.90;;;;;;;6.57;89.76;98847.16;5126412;28;20055;-94
2021/10/12 04:37:12;;;;;;;10.88;6.13;;;;;;;6.51;90.41;98851.66;5127255;28;20039;-94
2021/10/12 04:39:41;;;;;;;11.43;6.73;;;;;;;6.61;90.53;98885.00;5128782;28;20039;-94
2021/10/12 04:42:09;;;;;;;10.70;6.30;;;;;;;6.42;90.84;98863.16;5129636;28;20100;-94
2021/10/12 04:44:37;;;;;;;11.57;6.10;;;;;;;6.37;91.18;98862.31;5128454;28;20044;-94
2021/10/12 04:47:03;;;;;;;15.80;6.82;;;;;;;6.36;91.45;98853.53;5128425;28;20048;-93
2021/10/12 04:49:30;;;;;;;10.90;6.38;;;;;;;6.53;92.52;98876.28;5130786;27;20039;-94
2021/10/12 04:51:56;;;;;;;13.98;7.43;;;;;;;6.88;89.08;98841.56;5140669;27;20050;-93
2021/10/12 04:54:22;;;;;;;10.25;5.93;;;;;;;7.16;87.76;98839.47;5126413;28;20043;-94
2021/10/12 04:56:48;;;;;;;11.48;6.15;;;;;;;7.33;86.55;98843.66;5127622;28;20055;-94
2021/10/12 04:59:14;;;;;;;11.23;6.55;;;;;;;7.27;86.08;98838.47;5128079;28;20055;-95
2021/10/12 05:01:41;;;;;;;11.43;5.53;;;;;;;7.50;86.43;98884.00;5127646;28;20054;-95
2021/10/12 05:04:08;;;;;;;14.32;7.07;;;;;;;7.17;86.42;98840.34;5132757;27;20069;-94
2021/10/12 05:06:34;;;;;;;14.10;6.55;;;;;;;7.11;87.48;98837.75;5130470;28;20101;-93
2021/10/12 05:09:00;;;;;;;12.35;7.05;;;;;;;6.93;87.63;98825.66;5130079;28;20043;-94
2021/10/12 05:11:27;;;;;;;14.00;7.00;;;;;;;6.84;87.98;98834.56;5127510;28;20043;-94
2021/10/12 05:13:55;;;;;;;16.58;8.48;;;;;;;6.63;88.25;98827.72;5128014;28;20111;-95
2021/10/12 05:16:22;;;;;;;15.93;9.20;;;;;;;6.50;89.20;98829.59;5129200;28;21396;-95
2021/10/12 05:18:54;;;;;;;17.58;9.13;;;;;;;6.46;89.98;98848.16;5128401;28;20103;-94
2021/10/12 05:21:21;;;;;;;16.85;9.00;;;;;;;6.35;90.51;98857.06;5131242;28;20494;-94
2021/10/12 05:23:48;;;;;;;15.57;8.55;;;;;;;6.12;90.86;98827.34;5130600;28;20080;-95
2021/10/12 05:26:14;;;;;;;15.90;8.77;;;;;;;6.06;91.05;98832.66;5131183;28;20048;-94
2021/10/12 05:28:41;;;;;;;15.25;8.52;;;;;;;6.00;91.44;98830.94;5129623;28;20032;-95
2021/10/12 05:31:07;;;;;;;18.63;9.27;;;;;;;5.90;91.71;98819.53;5127987;28;20044;-94
2021/10/12 05:33:34;;;;;;;16.20;9.38;;;;;;;5.88;91.98;98831.00;5145116;28;20102;-94
2021/10/12 05:36:02;;;;;;;25.38;12.38;;;;;;;5.86;92.43;98836.28;5145267;28;20049;-94
2021/10/12 05:38:30;;;;;;;39.03;17.38;;;;;;;5.80;92.89;98819.63;5147715;28;20035;-94
2021/10/12 05:40:56;;;;;;;40.67;18.35;;;;;;;5.88;93.02;98850.34;5148518;28;20051;-94
2021/10/12 05:43:22;;;;;;;44.33;19.48;;;;;;;5.82;93.30;98847.75;5145223;28;20039;-94
2021/10/12 05:45:50;;;;;;;47.42;19.35;;;;;;;5.84;93.01;98837.19;5137827;28;20121;-94
2021/10/12 05:48:16;;;;;;;28.25;13.70;;;;;;;6.07;93.16;98877.53;5133359;28;20035;-94
2021/10/12 05:50:44;;;;;;;43.38;18.80;;;;;;;5.88;92.98;98838.94;5132088;28;20079;-94
2021/10/12 05:59:20;;;;;;;28.88;14.75;;;;;;;6.01;93.25;98839.72;5146580;27;20395;-93
2021/10/12 06:01:49;;;;;;;32.38;15.15;;;;;;;6.05;93.45;98849.38;5125380;28;20044;-94
2021/10/12 06:04:15;;;;;;;27.52;13.65;;;;;;;6.12;93.16;98857.25;5124679;28;20040;-95
2021/10/12 06:06:41;;;;;;;26.42;13.45;;;;;;;6.17;93.11;98851.91;5124447;28;20071;-94
2021/10/12 06:09:08;;;;;;;27.02;14.00;;;;;;;6.42;92.98;98889.59;5124381;28;20051;-94
2021/10/12 06:11:34;;;;;;;26.77;12.88;;;;;;;6.20;92.63;98856.28;5118088;28;20044;-94
2021/10/12 06:14:00;;;;;;;31.38;13.05;;;;;;;6.29;92.69;98857.13;5116480;28;20067;-93
2021/10/12 06:16:28;;;;;;;29.58;14.20;;;;;;;6.31;92.78;98850.06;5116335;28;20048;-95
2021/10/12 06:18:54;;;;;;;22.50;10.80;;;;;;;6.57;93.32;98872.69;5115744;28;20127;-94
2021/10/12 06:21:19;;;;;;;20.50;9.05;;;;;;;6.70;93.53;98890.22;5115310;28;20064;-94
2021/10/12 06:23:45;;;;;;;16.30;8.60;;;;;;;6.71;93.39;98854.94;5115979;28;20075;-94
2021/10/12 06:26:11;;;;;;;14.68;8.43;;;;;;;6.85;92.94;98864.50;5121215;28;20409;-94
2021/10/12 06:28:38;;;;;;;19.67;10.52;;;;;;;6.95;92.67;98863.50;5119384;28;20104;-95
2021/10/12 06:31:06;;;;;;;24.40;11.63;;;;;;;7.06;92.15;98856.34;5119188;28;20497;-94
2021/10/12 06:33:34;;;;;;;20.50;10.20;;;;;;;7.11;91.67;98856.28;5120381;28;20069;-94
2021/10/12 06:36:00;;;;;;;19.42;10.82;;;;;;;7.32;91.29;98866.59;5119251;28;20047;-94
2021/10/12 06:38:30;;;;;;;20.23;12.13;;;;;;;7.32;91.15;98852.50;5118647;28;20493;-94
2021/10/12 06:40:56;;;;;;;21.98;11.93;;;;;;;7.43;90.76;98850.59;5119577;28;20020;-95
2021/10/12 06:43:22;;;;;;;24.38;13.88;;;;;;;7.59;89.64;98852.16;5118897;28;20039;-96
2021/10/12 06:45:49;;;;;;;22.60;13.25;;;;;;;7.71;88.95;98842.28;5113313;28;20040;-95
2021/10/12 06:48:16;;;;;;;27.67;13.15;;;;;;;8.07;88.42;98880.59;5115203;28;20047;-95
2021/10/12 06:50:44;;;;;;;21.48;12.20;;;;;;;8.06;87.75;98846.16;5117762;28;20043;-94
2021/10/12 06:53:10;;;;;;;22.00;11.82;;;;;;;8.26;87.50;98844.06;5119114;28;20040;-95
2021/10/12 06:55:36;;;;;;;20.25;11.02;;;;;;;8.55;86.15;98856.84;5120091;28;20093;-94
2021/10/12 06:58:02;;;;;;;21.92;10.55;;;;;;;8.65;85.19;98857.56;5116263;28;20075;-94
2021/10/12 07:00:29;;;;;;;19.10;10.48;;;;;;;8.78;84.69;98848.50;5116147;28;20401;-94
2021/10/12 07:02:55;;;;;;;19.10;10.60;;;;;;;9.05;83.54;98859.47;5113422;28;20047;-94
2021/10/12 07:05:21;;;;;;;18.95;10.82;;;;;;;9.21;82.57;98847.66;5112769;28;20075;-95
2021/10/12 07:07:49;;;;;;;17.60;10.18;;;;;;;9.38;81.03;98835.81;5112997;28;20173;-94
2021/10/12 07:10:15;;;;;;;17.98;10.60;;;;;;;9.55;80.97;98828.38;5101863;28;20067;-95
2021/10/12 07:12:42;;;;;;;19.60;10.93;;;;;;;9.77;80.35;98828.75;5102939;28;20040;-95
2021/10/12 07:15:09;;;;;;;22.08;12.13;;;;;;;10.01;79.57;98832.63;5103057;28;20134;-93
2021/10/12 07:17:35;;;;;;;19.58;11.10;;;;;;;10.18;78.40;98837.53;5084769;28;20044;-93
2021/10/12 07:20:01;;;;;;;25.60;12.75;;;;;;;10.54;77.36;98856.19;5097439;28;20072;-93
2021/10/12 07:22:27;;;;;;;19.75;11.13;;;;;;;10.46;76.16;98827.09;5103754;28;20052;-94
2021/10/12 07:24:55;;;;;;;21.67;11.63;;;;;;;10.57;76.50;98840.13;5101182;28;20059;-94
2021/10/12 07:27:21;;;;;;;22.00;12.20;;;;;;;10.84;75.00;98827.00;5099495;28;20047;-94
2021/10/12 07:29:50;;;;;;;22.23;11.70;;;;;;;11.00;74.17;98831.00;5089426;28;20044;-94
2021/10/12 07:32:18;;;;;;;18.87;11.20;;;;;;;11.16;74.34;98834.09;5101953;28;20044;-94
2021/10/12 07:34:44;;;;;;;25.42;11.48;;;;;;;11.24;74.21;98821.44;5100721;28;20055;-95
2021/10/12 07:37:10;;;;;;;18.63;9.65;;;;;;;11.31;74.39;98827.47;5102190;28;20123;-94
2021/10/12 07:39:36;;;;;;;18.85;9.70;;;;;;;11.37;74.49;98831.75;5102621;28;20036;-96
2021/10/12 07:42:05;;;;;;;18.25;10.88;;;;;;;11.43;74.42;98847.56;5102307;28;20673;-94
2021/10/12 07:44:32;;;;;;;18.83;11.23;;;;;;;11.31;74.37;98831.00;5100430;28;20044;-95
2021/10/12 07:46:58;;;;;;;23.55;10.60;;;;;;;11.14;73.26;98819.09;5099376;28;20517;-94
2021/10/12 07:49:25;;;;;;;19.60;9.95;;;;;;;11.27;73.20;98826.66;5098717;28;20093;-95
2021/10/12 07:51:51;;;;;;;16.50;9.13;;;;;;;11.50;72.85;98854.44;5098704;28;20044;-93
2021/10/12 07:54:19;;;;;;;17.10;9.32;;;;;;;11.33;73.20;98820.31;5097744;28;20040;-95
2021/10/12 07:56:45;;;;;;;21.08;9.98;;;;;;;11.36;73.97;98827.31;5097761;28;20047;-95
2021/10/12 07:59:12;;;;;;;13.65;8.48;;;;;;;11.59;74.41;98846.16;5098539;28;20048;-93
2021/10/12 08:01:39;;;;;;;12.15;8.00;;;;;;;11.56;74.02;98816.06;5098027;28;20382;-94
2021/10/12 08:04:05;;;;;;;13.25;6.65;;;;;;;11.92;72.14;98846.94;5097832;28;20085;-95
2021/10/12 08:06:31;;;;;;;12.10;6.80;;;;;;;11.86;71.77;98832.91;5098495;28;20055;-96
2021/10/12 08:08:57;;;;;;;11.68;6.65;;;;;;;11.92;72.55;98852.28;5098270;28;20054;-93
2021/10/12 08:11:25;;;;;;;11.15;6.70;;;;;;;11.77;72.47;98826.06;5098734;28;20493;-95
2021/10/12 08:13:56;;;;;;;12.68;6.85;;;;;;;12.10;71.80;98850.84;5098720;28;20048;-95
2021/10/12 08:19:24;;;;;;;12.75;7.38;;;;;;;12.46;68.65;98844.34;5094504;27;20720;-93
2021/10/12 08:21:50;;;;;;;13.05;6.70;;;;;;;12.58;69.16;98845.72;5094196;28;20047;-93
2021/10/12 08:24:19;;;;;;;15.43;7.47;;;;;;;12.84;68.64;98834.16;5093797;28;20036;-92
2021/10/12 08:26:46;;;;;;;12.90;7.15;;;;;;;12.88;67.63;98818.00;5094924;28;20448;-92
2021/10/12 08:29:12;;;;;;;10.80;5.95;;;;;;;12.91;65.83;98809.00;5093984;28;20489;-92
2021/10/12 08:31:38;;;;;;;10.20;5.97;;;;;;;13.34;64.13;98823.47;5093835;28;20040;-93
2021/10/12 08:34:03;;;;;;;9.65;5.78;;;;;;;13.49;65.49;98830.03;5093766;28;20047;-92
2021/10/12 08:36:31;;;;;;;8.63;5.82;;;;;;;13.85;62.44;98827.72;5093874;28;20044;-92
2021/10/12 08:38:57;;;;;;;10.93;5.63;;;;;;;13.82;61.59;98819.84;5093055;28;20536;-94
2021/10/12 08:41:27;;;;;;;10.55;5.95;;;;;;;13.42;64.19;98826.69;5093883;28;20136;-95
2021/10/12 08:43:54;;;;;;;13.45;7.03;;;;;;;13.60;63.07;98826.94;5094047;28;20068;-94
2021/10/12 08:46:26;;;;;;;10.15;5.85;;;;;;;13.88;60.80;98800.00;5093374;28;20059;-94
2021/10/12 08:48:53;;;;;;;9.45;6.25;;;;;;;14.03;61.33;98818.13;5093811;28;20040;-93
2021/10/12 08:51:19;;;;;;;10.15;6.55;;;;;;;13.90;60.50;98832.88;5093190;28;20490;-93
2021/10/12 08:53:46;;;;;;;9.20;6.03;;;;;;;13.88;59.61;98832.97;5093407;28;20094;-91
2021/10/12 08:56:13;;;;;;;15.70;6.00;;;;;;;13.70;61.11;98807.81;5093947;28;20050;-94
2021/10/12 08:58:39;;;;;;;10.77;6.28;;;;;;;13.64;61.99;98812.53;5091896;28;20127;-94
2021/10/12 09:01:07;;;;;;;10.77;6.15;;;;;;;13.68;61.03;98830.19;5093477;28;20094;-94
2021/10/12 09:03:46;;;;;;;8.95;5.60;;;;;;;13.55;61.65;98819.09;5095765;28;20048;-92
2021/10/12 09:06:12;;;;;;;10.20;6.03;;;;;;;13.19;62.81;98803.50;5092004;28;20051;-94
2021/10/12 09:08:39;;;;;;;9.40;6.22;;;;;;;13.50;62.74;98827.28;5095700;28;20044;-94
2021/10/12 09:11:19;;;;;;;12.40;6.10;;;;;;;13.42;62.73;98818.69;5095737;28;20498;-93
2021/10/12 09:13:46;;;;;;;10.75;5.43;;;;;;;13.51;62.35;98797.00;5085316;28;20044;-93
2021/10/12 09:16:33;;;;;;;11.43;6.28;;;;;;;13.51;61.72;98804.09;5096396;28;20063;-92
2021/10/12 09:19:01;;;;;;;9.98;5.95;;;;;;;13.91;60.97;98798.06;5098881;28;20042;-94
2021/10/12 09:21:29;;;;;;;11.45;6.43;;;;;;;14.35;61.41;98792.69;5101227;28;20513;-94
2021/10/12 09:24:05;;;;;;;11.02;6.05;;;;;;;14.70;58.37;98779.69;5098328;28;20075;-94
2021/10/12 09:26:34;;;;;;;8.95;5.97;;;;;;;14.81;57.91;98776.50;5099817;28;20048;-96
2021/10/12 09:29:05;;;;;;;10.25;6.30;;;;;;;14.68;57.63;98797.59;5095666;28;20037;-94
2021/10/12 09:31:33;;;;;;;11.07;6.20;;;;;;;14.84;57.95;98771.03;5085223;28;20048;-93
2021/10/12 09:34:03;;;;;;;9.20;5.93;;;;;;;14.95;56.69;98782.13;5084228;28;20045;-95
2021/10/12 09:36:31;;;;;;;9.63;5.53;;;;;;;14.51;57.99;98749.25;5084424;28;20147;-94
2021/10/12 09:38:57;;;;;;;9.80;5.55;;;;;;;14.66;58.32;98759.34;5083466;28;20033;-94
2021/10/12 09:41:25;;;;;;;12.48;6.60;;;;;;;14.39;58.63;98764.03;5082054;28;20045;-94
2021/10/12 09:44:04;;;;;;;9.80;6.20;;;;;;;14.31;59.09;98776.84;5084011;28;20044;-95
2021/10/12 09:46:31;;;;;;;10.15;6.43;;;;;;;14.37;59.27;98744.50;5083719;28;20067;-95
2021/10/12 09:49:12;;;;;;;11.90;6.03;;;;;;;14.70;57.96;98738.63;5070900;28;20045;-94
2021/10/12 09:51:42;;;;;;;9.63;5.97;;;;;;;14.86;57.81;98738.84;5081665;28;20052;-95
2021/10/12 09:54:20;;;;;;;12.75;6.30;;;;;;;15.27;56.19;98744.13;5082802;28;20497;-94
2021/10/12 09:56:47;;;;;;;12.25;6.47;;;;;;;15.30;55.69;98768.06;5082303;28;20105;-94
2021/10/12 09:59:16;;;;;;;12.07;6.28;;;;;;;15.14;56.86;98742.00;5081514;28;20055;-94
2021/10/12 10:01:46;;;;;;;10.98;6.03;;;;;;;15.30;55.76;98734.09;5083319;28;20040;-94
2021/10/12 10:04:16;;;;;;;16.00;6.68;;;;;;;15.19;55.25;98741.78;5079757;28;20127;-92
2021/10/12 10:06:43;;;;;;;11.18;6.13;;;;;;;15.44;55.34;98740.63;5079413;28;20052;-92
2021/10/12 10:09:13;;;;;;;9.77;5.82;;;;;;;15.74;55.86;98731.16;5080890;28;20049;-92
2021/10/12 10:11:39;;;;;;;9.98;5.90;;;;;;;15.94;54.09;98713.19;5077046;28;20490;-94
2021/10/12 10:14:06;;;;;;;9.80;6.47;;;;;;;16.32;52.10;98723.81;5084973;28;20032;-93
2021/10/12 10:16:35;;;;;;;13.38;6.35;;;;;;;16.05;52.52;98713.53;5081012;28;20041;-93
2021/10/12 10:19:02;;;;;;;9.43;5.78;;;;;;;16.06;51.88;98706.34;5082089;28;20040;-93
2021/10/12 10:21:28;;;;;;;8.57;6.10;;;;;;;16.09;52.59;98701.72;5080214;28;20094;-94
2021/10/12 10:23:57;;;;;;;8.68;5.60;;;;;;;16.34;52.98;98719.25;5081734;28;20066;-94
2021/10/12 10:26:26;;;;;;;11.82;5.80;;;;;;;16.16;51.44;98715.69;5078015;28;20048;-95
2021/10/12 10:28:55;;;;;;;8.20;6.10;;;;;;;15.89;52.24;98697.31;5078160;28;20042;-93
2021/10/12 10:31:40;;;;;;;9.68;5.97;;;;;;;15.88;51.96;98716.19;5078366;28;20044;-95
2021/10/12 10:34:29;;;;;;;9.95;5.32;;;;;;;15.96;52.44;98725.59;5078187;28;20048;-94
2021/10/12 10:37:27;;;;;;;10.13;5.80;;;;;;;16.14;51.29;98718.44;5078368;28;20044;-94
2021/10/12 10:39:56;;;;;;;11.77;6.63;;;;;;;16.35;50.56;98686.06;5079830;28;20439;-94
2021/10/12 10:42:58;;;;;;;8.43;5.40;;;;;;;16.62;49.36;98706.09;5077747;28;20045;-94
2021/10/12 10:45:54;;;;;;;10.05;6.25;;;;;;;16.06;50.52;98715.25;5069170;28;20521;-94
2021/10/12 10:48:22;;;;;;;9.90;6.18;;;;;;;15.96;50.88;98689.84;5058368;28;20048;-94
2021/10/12 10:50:48;;;;;;;8.48;5.45;;;;;;;16.17;51.50;98694.13;5058704;28;20068;-94
2021/10/12 10:53:38;;;;;;;9.05;5.55;;;;;;;16.23;49.58;98676.84;5077117;28;20064;-95
2021/10/12 10:56:04;;;;;;;10.88;6.65;;;;;;;16.74;50.06;98676.84;5076281;28;20036;-95
2021/10/12 10:58:30;;;;;;;16.45;9.15;;;;;;;17.09;48.53;98688.44;5078744;28;20056;-94
2021/10/12 11:00:56;;;;;;;10.98;5.90;;;;;;;17.00;49.02;98660.25;5075911;28;20040;-95
2021/10/12 11:03:42;;;;;;;10.68;5.38;;;;;;;16.96;50.19;98673.94;5077612;28;20048;-94
2021/10/12 11:06:16;;;;;;;8.82;4.90;;;;;;;16.37;46.38;98644.81;5077260;28;20543;-96
2021/10/12 11:08:56;;;;;;;6.65;4.60;;;;;;;16.66;45.08;98641.53;5076618;28;20123;-93
2021/10/12 11:11:22;;;;;;;7.80;4.75;;;;;;;16.81;45.85;98646.09;5077961;28;20517;-95
2021/10/12 11:13:48;;;;;;;8.90;4.22;;;;;;;16.64;45.62;98618.28;5077992;28;20055;-93
2021/10/12 11:16:16;;;;;;;8.05;4.80;;;;;;;16.41;45.55;98626.72;5074152;28;20044;-94
2021/10/12 11:18:44;;;;;;;8.50;4.30;;;;;;;16.25;46.77;98621.31;5075389;28;20045;-95
2021/10/12 11:21:13;;;;;;;7.40;4.55;;;;;;;16.05;46.20;98616.09;5076037;28;20494;-94
2021/10/12 11:23:41;;;;;;;7.70;4.45;;;;;;;16.20;45.71;98591.16;5075402;28;20060;-95
2021/10/12 11:26:09;;;;;;;7.07;4.53;;;;;;;16.00;46.82;98594.88;5075933;28;20044;-93
2021/10/12 11:28:37;;;;;;;7.50;5.22;;;;;;;16.19;47.28;98573.31;5078297;28;20036;-94
2021/10/12 11:31:06;;;;;;;9.43;4.40;;;;;;;16.37;47.63;98609.03;5077581;28;20473;-94
2021/10/12 11:33:34;;;;;;;7.03;4.97;;;;;;;16.13;47.11;98604.00;5077648;28;20045;-96
2021/10/12 11:36:03;;;;;;;7.93;4.85;;;;;;;16.02;47.40;98568.84;5079876;28;20109;-95
2021/10/12 11:38:31;;;;;;;8.10;4.90;;;;;;;16.11;47.03;98560.34;5084367;28;20036;-93
2021/10/12 11:40:57;;;;;;;9.48;4.95;;;;;;;16.32;47.63;98563.66;5082490;28;20123;-96
2021/10/12 11:43:37;;;;;;;8.68;4.90;;;;;;;16.70;48.06;98597.41;5081094;28;20052;-93
2021/10/12 11:46:06;;;;;;;8.50;4.72;;;;;;;16.47;47.93;98561.97;5078876;28;20040;-94
2021/10/12 11:48:36;;;;;;;9.15;5.90;;;;;;;16.56;46.34;98548.03;5082799;28;20087;-94